sensor_id;sensor_type;location;lat;lon;timestamp;P1;durP1;ratioP1;P2;durP2;ratioP2
55601;SDS011;59921;51.332;12.410;2023-05-17T00:01:23;2.78;;;1.95;;
55601;SDS011;59921;51.332;12.410;2023-05-17T00:03:48;2.47;;;1.77;;
55601;SDS011;59921;51.332;12.410;2023-05-17T00:06:13;3.05;;;1.92;;
55601;SDS011;59921;51.332;12.410;2023-05-17T00:08:39;2.95;;;1.90;;
55601;SDS011;59921;51.332;12.410;2023-05-17T00:11:04;3.03;;;1.92;;
55601;SDS011;59921;51.332;12.410;2023-05-17T00:13:30;2.78;;;1.90;;
55601;SDS011;59921;51.332;12.410;2023-05-17T00:15:55;2.97;;;1.85;;
55601;SDS011;59921;51.332;12.410;2023-05-17T00:18:21;3.15;;;2.10;;
55601;SDS011;59921;51.332;12.410;2023-05-17T00:20:46;2.70;;;1.90;;
55601;SDS011;59921;51.332;12.410;2023-05-17T00:23:12;3.25;;;2.20;;
55601;SDS011;59921;51.332;12.410;2023-05-17T00:25:37;2.92;;;2.00;;
55601;SDS011;59921;51.332;12.410;2023-05-17T00:28:03;2.85;;;1.80;;
55601;SDS011;59921;51.332;12.410;2023-05-17T00:30:29;3.25;;;2.00;;
55601;SDS011;59921;51.332;12.410;2023-05-17T00:32:55;3.10;;;2.17;;
55601;SDS011;59921;51.332;12.410;2023-05-17T00:35:20;2.70;;;2.00;;
55601;SDS011;59921;51.332;12.410;2023-05-17T00:37:46;3.15;;;2.00;;
55601;SDS011;59921;51.332;12.410;2023-05-17T00:40:12;3.35;;;2.10;;
55601;SDS011;59921;51.332;12.410;2023-05-17T00:42:39;2.58;;;1.85;;
55601;SDS011;59921;51.332;12.410;2023-05-17T00:45:05;2.80;;;1.98;;
55601;SDS011;59921;51.332;12.410;2023-05-17T00:47:31;3.20;;;2.20;;
55601;SDS011;59921;51.332;12.410;2023-05-17T00:49:57;3.00;;;2.13;;
55601;SDS011;59921;51.332;12.410;2023-05-17T00:52:22;2.83;;;1.90;;
55601;SDS011;59921;51.332;12.410;2023-05-17T00:54:49;3.13;;;2.00;;
55601;SDS011;59921;51.332;12.410;2023-05-17T00:57:15;2.75;;;1.90;;
55601;SDS011;59921;51.332;12.410;2023-05-17T00:59:41;2.40;;;1.80;;
55601;SDS011;59921;51.332;12.410;2023-05-17T01:02:09;2.90;;;1.88;;
55601;SDS011;59921;51.332;12.410;2023-05-17T01:04:36;3.00;;;1.90;;
55601;SDS011;59921;51.332;12.410;2023-05-17T01:07:02;2.67;;;1.98;;
55601;SDS011;59921;51.332;12.410;2023-05-17T01:09:28;2.50;;;1.90;;
55601;SDS011;59921;51.332;12.410;2023-05-17T01:12:10;2.92;;;2.08;;
55601;SDS011;59921;51.332;12.410;2023-05-17T01:20:42;2.55;;;2.00;;
55601;SDS011;59921;51.332;12.410;2023-05-17T01:25:39;2.50;;;1.80;;
55601;SDS011;59921;51.332;12.410;2023-05-17T01:28:15;2.58;;;1.85;;
55601;SDS011;59921;51.332;12.410;2023-05-17T01:30:43;2.60;;;1.90;;
55601;SDS011;59921;51.332;12.410;2023-05-17T01:33:10;2.42;;;1.80;;
55601;SDS011;59921;51.332;12.410;2023-05-17T01:35:36;2.58;;;1.77;;
55601;SDS011;59921;51.332;12.410;2023-05-17T01:38:02;2.83;;;2.10;;
55601;SDS011;59921;51.332;12.410;2023-05-17T01:40:28;2.58;;;1.80;;
55601;SDS011;59921;51.332;12.410;2023-05-17T01:43:05;2.88;;;1.95;;
55601;SDS011;59921;51.332;12.410;2023-05-17T01:46:01;3.30;;;1.98;;
55601;SDS011;59921;51.332;12.410;2023-05-17T01:48:38;2.47;;;1.60;;
55601;SDS011;59921;51.332;12.410;2023-05-17T01:51:08;2.92;;;1.73;;
55601;SDS011;59921;51.332;12.410;2023-05-17T01:53:38;2.92;;;1.85;;
55601;SDS011;59921;51.332;12.410;2023-05-17T01:56:14;2.85;;;2.00;;
55601;SDS011;59921;51.332;12.410;2023-05-17T01:58:44;2.55;;;1.67;;
55601;SDS011;59921;51.332;12.410;2023-05-17T02:01:12;2.65;;;1.85;;
55601;SDS011;59921;51.332;12.410;2023-05-17T02:03:39;2.70;;;1.90;;
55601;SDS011;59921;51.332;12.410;2023-05-17T02:06:05;2.63;;;1.95;;
55601;SDS011;59921;51.332;12.410;2023-05-17T02:08:31;3.00;;;1.90;;
55601;SDS011;59921;51.332;12.410;2023-05-17T02:10:56;2.72;;;2.00;;
55601;SDS011;59921;51.332;12.410;2023-05-17T02:13:22;2.90;;;1.90;;
55601;SDS011;59921;51.332;12.410;2023-05-17T02:15:48;3.20;;;1.83;;
55601;SDS011;59921;51.332;12.410;2023-05-17T02:18:13;2.88;;;1.90;;
55601;SDS011;59921;51.332;12.410;2023-05-17T02:20:39;2.80;;;1.70;;
55601;SDS011;59921;51.332;12.410;2023-05-17T02:23:05;2.42;;;1.63;;
55601;SDS011;59921;51.332;12.410;2023-05-17T02:25:31;2.10;;;1.67;;
55601;SDS011;59921;51.332;12.410;2023-05-17T02:27:56;2.40;;;1.70;;
55601;SDS011;59921;51.332;12.410;2023-05-17T02:30:22;2.30;;;1.77;;
55601;SDS011;59921;51.332;12.410;2023-05-17T02:32:49;2.70;;;1.90;;
55601;SDS011;59921;51.332;12.410;2023-05-17T02:35:15;2.65;;;1.75;;
55601;SDS011;59921;51.332;12.410;2023-05-17T02:37:41;2.15;;;1.70;;
55601;SDS011;59921;51.332;12.410;2023-05-17T02:40:06;2.50;;;1.80;;
55601;SDS011;59921;51.332;12.410;2023-05-17T02:42:33;3.00;;;1.95;;
55601;SDS011;59921;51.332;12.410;2023-05-17T02:45:00;3.22;;;1.77;;
55601;SDS011;59921;51.332;12.410;2023-05-17T02:47:25;2.25;;;1.58;;
55601;SDS011;59921;51.332;12.410;2023-05-17T02:49:51;2.40;;;1.60;;
55601;SDS011;59921;51.332;12.410;2023-05-17T02:52:16;2.55;;;1.60;;
55601;SDS011;59921;51.332;12.410;2023-05-17T02:54:42;2.25;;;1.70;;
55601;SDS011;59921;51.332;12.410;2023-05-17T02:57:08;2.75;;;1.80;;
55601;SDS011;59921;51.332;12.410;2023-05-17T02:59:35;2.75;;;1.85;;
55601;SDS011;59921;51.332;12.410;2023-05-17T03:02:00;2.63;;;1.80;;
55601;SDS011;59921;51.332;12.410;2023-05-17T03:04:26;2.28;;;1.80;;
55601;SDS011;59921;51.332;12.410;2023-05-17T03:06:52;2.28;;;1.60;;
55601;SDS011;59921;51.332;12.410;2023-05-17T03:09:17;2.03;;;1.60;;
55601;SDS011;59921;51.332;12.410;2023-05-17T03:11:43;2.63;;;1.80;;
55601;SDS011;59921;51.332;12.410;2023-05-17T03:14:09;2.28;;;1.60;;
55601;SDS011;59921;51.332;12.410;2023-05-17T03:16:34;2.53;;;1.83;;
55601;SDS011;59921;51.332;12.410;2023-05-17T03:19:00;2.20;;;1.50;;
55601;SDS011;59921;51.332;12.410;2023-05-17T03:21:25;2.20;;;1.55;;
55601;SDS011;59921;51.332;12.410;2023-05-17T03:23:51;2.75;;;1.50;;
55601;SDS011;59921;51.332;12.410;2023-05-17T03:26:16;2.28;;;1.60;;
55601;SDS011;59921;51.332;12.410;2023-05-17T03:28:44;2.50;;;1.80;;
55601;SDS011;59921;51.332;12.410;2023-05-17T03:31:09;2.03;;;1.55;;
55601;SDS011;59921;51.332;12.410;2023-05-17T03:33:35;2.05;;;1.50;;
55601;SDS011;59921;51.332;12.410;2023-05-17T03:36:01;2.20;;;1.60;;
55601;SDS011;59921;51.332;12.410;2023-05-17T03:38:27;2.88;;;1.80;;
55601;SDS011;59921;51.332;12.410;2023-05-17T03:40:53;2.80;;;1.70;;
55601;SDS011;59921;51.332;12.410;2023-05-17T03:43:18;1.90;;;1.40;;
55601;SDS011;59921;51.332;12.410;2023-05-17T03:45:44;2.38;;;1.60;;
55601;SDS011;59921;51.332;12.410;2023-05-17T03:48:10;2.67;;;1.60;;
55601;SDS011;59921;51.332;12.410;2023-05-17T03:50:35;2.10;;;1.40;;
55601;SDS011;59921;51.332;12.410;2023-05-17T03:53:01;2.45;;;1.60;;
55601;SDS011;59921;51.332;12.410;2023-05-17T03:55:27;3.00;;;1.70;;
55601;SDS011;59921;51.332;12.410;2023-05-17T03:57:52;2.00;;;1.40;;
55601;SDS011;59921;51.332;12.410;2023-05-17T04:00:18;2.30;;;1.65;;
55601;SDS011;59921;51.332;12.410;2023-05-17T04:02:49;1.85;;;1.50;;
55601;SDS011;59921;51.332;12.410;2023-05-17T04:05:15;2.75;;;1.52;;
55601;SDS011;59921;51.332;12.410;2023-05-17T04:07:41;2.10;;;1.45;;
55601;SDS011;59921;51.332;12.410;2023-05-17T04:10:07;2.63;;;1.70;;
55601;SDS011;59921;51.332;12.410;2023-05-17T04:12:33;2.60;;;1.60;;
55601;SDS011;59921;51.332;12.410;2023-05-17T04:14:59;2.22;;;1.70;;
55601;SDS011;59921;51.332;12.410;2023-05-17T04:17:25;2.13;;;1.50;;
55601;SDS011;59921;51.332;12.410;2023-05-17T04:19:51;2.00;;;1.40;;
55601;SDS011;59921;51.332;12.410;2023-05-17T04:22:18;1.92;;;1.38;;
55601;SDS011;59921;51.332;12.410;2023-05-17T04:24:44;1.85;;;1.33;;
55601;SDS011;59921;51.332;12.410;2023-05-17T04:27:10;2.00;;;1.48;;
55601;SDS011;59921;51.332;12.410;2023-05-17T04:29:36;2.28;;;1.58;;
55601;SDS011;59921;51.332;12.410;2023-05-17T04:32:01;2.42;;;1.50;;
55601;SDS011;59921;51.332;12.410;2023-05-17T04:34:27;2.10;;;1.50;;
55601;SDS011;59921;51.332;12.410;2023-05-17T04:36:52;2.72;;;1.50;;
55601;SDS011;59921;51.332;12.410;2023-05-17T04:39:18;2.75;;;1.63;;
55601;SDS011;59921;51.332;12.410;2023-05-17T04:41:45;1.98;;;1.60;;
55601;SDS011;59921;51.332;12.410;2023-05-17T04:44:10;2.33;;;1.75;;
55601;SDS011;59921;51.332;12.410;2023-05-17T04:46:36;2.22;;;1.52;;
55601;SDS011;59921;51.332;12.410;2023-05-17T04:49:02;2.22;;;1.58;;
55601;SDS011;59921;51.332;12.410;2023-05-17T04:51:28;2.30;;;1.52;;
55601;SDS011;59921;51.332;12.410;2023-05-17T04:53:54;2.33;;;1.67;;
55601;SDS011;59921;51.332;12.410;2023-05-17T04:56:19;2.28;;;1.60;;
55601;SDS011;59921;51.332;12.410;2023-05-17T04:58:45;1.85;;;1.40;;
55601;SDS011;59921;51.332;12.410;2023-05-17T05:01:10;2.08;;;1.45;;
55601;SDS011;59921;51.332;12.410;2023-05-17T05:03:36;1.80;;;1.40;;
55601;SDS011;59921;51.332;12.410;2023-05-17T05:06:02;1.83;;;1.40;;
55601;SDS011;59921;51.332;12.410;2023-05-17T05:08:28;2.30;;;1.50;;
55601;SDS011;59921;51.332;12.410;2023-05-17T05:10:53;1.83;;;1.25;;
55601;SDS011;59921;51.332;12.410;2023-05-17T05:13:22;2.15;;;1.40;;
55601;SDS011;59921;51.332;12.410;2023-05-17T05:15:47;1.95;;;1.40;;
55601;SDS011;59921;51.332;12.410;2023-05-17T05:18:12;1.65;;;1.40;;
55601;SDS011;59921;51.332;12.410;2023-05-17T05:20:38;2.13;;;1.38;;
55601;SDS011;59921;51.332;12.410;2023-05-17T05:23:03;1.80;;;1.30;;
55601;SDS011;59921;51.332;12.410;2023-05-17T05:25:30;2.20;;;1.40;;
55601;SDS011;59921;51.332;12.410;2023-05-17T05:27:56;1.95;;;1.40;;
55601;SDS011;59921;51.332;12.410;2023-05-17T05:30:22;1.90;;;1.33;;
55601;SDS011;59921;51.332;12.410;2023-05-17T05:32:50;1.58;;;1.20;;
55601;SDS011;59921;51.332;12.410;2023-05-17T05:35:16;1.90;;;1.45;;
55601;SDS011;59921;51.332;12.410;2023-05-17T05:37:42;1.50;;;1.20;;
55601;SDS011;59921;51.332;12.410;2023-05-17T05:40:09;2.38;;;1.40;;
55601;SDS011;59921;51.332;12.410;2023-05-17T05:42:35;2.00;;;1.27;;
55601;SDS011;59921;51.332;12.410;2023-05-17T05:45:01;1.98;;;1.20;;
55601;SDS011;59921;51.332;12.410;2023-05-17T05:47:27;2.33;;;1.50;;
55601;SDS011;59921;51.332;12.410;2023-05-17T05:49:53;1.88;;;1.48;;
55601;SDS011;59921;51.332;12.410;2023-05-17T05:52:18;1.58;;;1.30;;
55601;SDS011;59921;51.332;12.410;2023-05-17T05:54:44;1.60;;;1.20;;
55601;SDS011;59921;51.332;12.410;2023-05-17T05:57:10;1.67;;;1.30;;
55601;SDS011;59921;51.332;12.410;2023-05-17T05:59:35;1.40;;;1.20;;
55601;SDS011;59921;51.332;12.410;2023-05-17T06:02:01;1.88;;;1.30;;
55601;SDS011;59921;51.332;12.410;2023-05-17T06:04:27;1.98;;;1.40;;
55601;SDS011;59921;51.332;12.410;2023-05-17T06:06:55;2.00;;;1.35;;
55601;SDS011;59921;51.332;12.410;2023-05-17T06:09:21;1.10;;;1.00;;
55601;SDS011;59921;51.332;12.410;2023-05-17T06:11:46;2.00;;;1.25;;
55601;SDS011;59921;51.332;12.410;2023-05-17T06:14:12;1.25;;;1.10;;
55601;SDS011;59921;51.332;12.410;2023-05-17T06:16:37;1.60;;;1.20;;
55601;SDS011;59921;51.332;12.410;2023-05-17T06:19:03;1.90;;;1.33;;
55601;SDS011;59921;51.332;12.410;2023-05-17T06:21:28;1.88;;;1.30;;
55601;SDS011;59921;51.332;12.410;2023-05-17T06:23:56;1.85;;;1.20;;
55601;SDS011;59921;51.332;12.410;2023-05-17T06:26:21;1.73;;;1.30;;
55601;SDS011;59921;51.332;12.410;2023-05-17T06:28:47;1.38;;;1.20;;
55601;SDS011;59921;51.332;12.410;2023-05-17T06:31:13;1.48;;;1.17;;
55601;SDS011;59921;51.332;12.410;2023-05-17T06:33:38;1.45;;;1.10;;
55601;SDS011;59921;51.332;12.410;2023-05-17T06:36:04;1.80;;;1.30;;
55601;SDS011;59921;51.332;12.410;2023-05-17T06:38:29;1.75;;;1.20;;
55601;SDS011;59921;51.332;12.410;2023-05-17T06:40:55;2.35;;;1.20;;
55601;SDS011;59921;51.332;12.410;2023-05-17T06:43:22;1.45;;;1.10;;
55601;SDS011;59921;51.332;12.410;2023-05-17T06:45:48;1.80;;;1.20;;
55601;SDS011;59921;51.332;12.410;2023-05-17T06:48:14;1.70;;;1.30;;
55601;SDS011;59921;51.332;12.410;2023-05-17T06:50:40;1.70;;;1.27;;
55601;SDS011;59921;51.332;12.410;2023-05-17T06:53:05;1.25;;;1.10;;
55601;SDS011;59921;51.332;12.410;2023-05-17T06:55:31;2.08;;;1.40;;
55601;SDS011;59921;51.332;12.410;2023-05-17T06:57:56;1.90;;;1.30;;
55601;SDS011;59921;51.332;12.410;2023-05-17T07:00:26;1.90;;;1.30;;
55601;SDS011;59921;51.332;12.410;2023-05-17T07:02:55;1.70;;;1.20;;
55601;SDS011;59921;51.332;12.410;2023-05-17T07:05:20;2.33;;;1.50;;
55601;SDS011;59921;51.332;12.410;2023-05-17T07:07:48;1.77;;;1.30;;
55601;SDS011;59921;51.332;12.410;2023-05-17T07:10:13;1.90;;;1.38;;
55601;SDS011;59921;51.332;12.410;2023-05-17T07:12:39;1.83;;;1.25;;
55601;SDS011;59921;51.332;12.410;2023-05-17T07:15:05;1.67;;;1.20;;
55601;SDS011;59921;51.332;12.410;2023-05-17T07:17:30;1.92;;;1.40;;
55601;SDS011;59921;51.332;12.410;2023-05-17T07:19:56;2.05;;;1.40;;
55601;SDS011;59921;51.332;12.410;2023-05-17T07:22:22;2.38;;;1.30;;
55601;SDS011;59921;51.332;12.410;2023-05-17T07:24:47;1.95;;;1.60;;
55601;SDS011;59921;51.332;12.410;2023-05-17T07:27:12;2.50;;;1.55;;
55601;SDS011;59921;51.332;12.410;2023-05-17T07:29:38;2.35;;;1.38;;
55601;SDS011;59921;51.332;12.410;2023-05-17T07:32:06;1.83;;;1.27;;
55601;SDS011;59921;51.332;12.410;2023-05-17T07:34:34;1.92;;;1.40;;
55601;SDS011;59921;51.332;12.410;2023-05-17T07:37:00;2.80;;;1.60;;
55601;SDS011;59921;51.332;12.410;2023-05-17T07:39:25;1.85;;;1.33;;
55601;SDS011;59921;51.332;12.410;2023-05-17T07:41:51;2.55;;;1.67;;
55601;SDS011;59921;51.332;12.410;2023-05-17T07:44:17;2.33;;;1.50;;
55601;SDS011;59921;51.332;12.410;2023-05-17T07:46:42;2.63;;;1.73;;
55601;SDS011;59921;51.332;12.410;2023-05-17T07:49:08;2.05;;;1.40;;
55601;SDS011;59921;51.332;12.410;2023-05-17T07:51:34;2.10;;;1.60;;
55601;SDS011;59921;51.332;12.410;2023-05-17T07:54:02;2.58;;;1.58;;
55601;SDS011;59921;51.332;12.410;2023-05-17T07:56:28;2.50;;;1.52;;
55601;SDS011;59921;51.332;12.410;2023-05-17T07:58:54;3.47;;;1.60;;
55601;SDS011;59921;51.332;12.410;2023-05-17T08:01:19;2.53;;;1.65;;
55601;SDS011;59921;51.332;12.410;2023-05-17T08:03:46;2.75;;;1.70;;
55601;SDS011;59921;51.332;12.410;2023-05-17T08:06:13;2.85;;;1.65;;
55601;SDS011;59921;51.332;12.410;2023-05-17T08:08:39;2.45;;;1.40;;
55601;SDS011;59921;51.332;12.410;2023-05-17T08:11:05;2.92;;;1.77;;
55601;SDS011;59921;51.332;12.410;2023-05-17T08:13:31;3.35;;;1.80;;
55601;SDS011;59921;51.332;12.410;2023-05-17T08:15:57;2.38;;;1.60;;
55601;SDS011;59921;51.332;12.410;2023-05-17T08:18:28;2.90;;;1.70;;
55601;SDS011;59921;51.332;12.410;2023-05-17T08:20:54;2.15;;;1.50;;
55601;SDS011;59921;51.332;12.410;2023-05-17T08:23:20;2.78;;;1.85;;
55601;SDS011;59921;51.332;12.410;2023-05-17T08:25:46;2.55;;;1.40;;
55601;SDS011;59921;51.332;12.410;2023-05-17T08:28:12;3.30;;;1.90;;
55601;SDS011;59921;51.332;12.410;2023-05-17T08:30:37;2.92;;;1.70;;
55601;SDS011;59921;51.332;12.410;2023-05-17T08:33:03;3.00;;;1.80;;
55601;SDS011;59921;51.332;12.410;2023-05-17T08:35:28;2.78;;;1.85;;
55601;SDS011;59921;51.332;12.410;2023-05-17T08:37:55;3.03;;;1.80;;
55601;SDS011;59921;51.332;12.410;2023-05-17T08:40:21;3.72;;;1.75;;
55601;SDS011;59921;51.332;12.410;2023-05-17T08:42:47;2.65;;;1.80;;
55601;SDS011;59921;51.332;12.410;2023-05-17T08:45:15;3.17;;;1.80;;
55601;SDS011;59921;51.332;12.410;2023-05-17T08:47:43;3.08;;;1.70;;
55601;SDS011;59921;51.332;12.410;2023-05-17T08:50:10;3.72;;;2.10;;
55601;SDS011;59921;51.332;12.410;2023-05-17T08:52:38;2.97;;;1.77;;
55601;SDS011;59921;51.332;12.410;2023-05-17T08:55:04;3.33;;;1.90;;
55601;SDS011;59921;51.332;12.410;2023-05-17T08:57:32;3.53;;;2.00;;
55601;SDS011;59921;51.332;12.410;2023-05-17T09:00:00;3.63;;;1.90;;
55601;SDS011;59921;51.332;12.410;2023-05-17T09:02:29;3.20;;;2.00;;
55601;SDS011;59921;51.332;12.410;2023-05-17T09:04:55;3.97;;;1.98;;
55601;SDS011;59921;51.332;12.410;2023-05-17T09:07:21;3.60;;;2.20;;
55601;SDS011;59921;51.332;12.410;2023-05-17T09:09:51;3.60;;;2.00;;
55601;SDS011;59921;51.332;12.410;2023-05-17T09:12:17;3.22;;;1.80;;
55601;SDS011;59921;51.332;12.410;2023-05-17T09:14:47;3.92;;;2.20;;
55601;SDS011;59921;51.332;12.410;2023-05-17T09:17:13;4.30;;;2.20;;
55601;SDS011;59921;51.332;12.410;2023-05-17T09:19:43;2.95;;;1.98;;
55601;SDS011;59921;51.332;12.410;2023-05-17T09:22:13;3.35;;;2.08;;
55601;SDS011;59921;51.332;12.410;2023-05-17T09:24:41;4.25;;;2.30;;
55601;SDS011;59921;51.332;12.410;2023-05-17T09:27:07;3.72;;;2.03;;
55601;SDS011;59921;51.332;12.410;2023-05-17T09:29:33;4.43;;;2.40;;
55601;SDS011;59921;51.332;12.410;2023-05-17T09:32:12;4.15;;;2.42;;
55601;SDS011;59921;51.332;12.410;2023-05-17T09:34:39;3.70;;;2.20;;
55601;SDS011;59921;51.332;12.410;2023-05-17T09:37:11;4.05;;;2.45;;
55601;SDS011;59921;51.332;12.410;2023-05-17T09:39:39;3.83;;;2.33;;
55601;SDS011;59921;51.332;12.410;2023-05-17T09:42:05;3.75;;;2.20;;
55601;SDS011;59921;51.332;12.410;2023-05-17T09:44:31;4.53;;;2.30;;
55601;SDS011;59921;51.332;12.410;2023-05-17T09:47:10;3.60;;;2.17;;
55601;SDS011;59921;51.332;12.410;2023-05-17T09:49:35;4.05;;;2.42;;
55601;SDS011;59921;51.332;12.410;2023-05-17T09:52:05;4.57;;;2.33;;
55601;SDS011;59921;51.332;12.410;2023-05-17T09:54:36;4.10;;;2.00;;
55601;SDS011;59921;51.332;12.410;2023-05-17T09:57:05;3.78;;;2.30;;
55601;SDS011;59921;51.332;12.410;2023-05-17T09:59:33;4.40;;;2.63;;
55601;SDS011;59921;51.332;12.410;2023-05-17T10:01:59;3.65;;;2.30;;
55601;SDS011;59921;51.332;12.410;2023-05-17T10:04:26;4.10;;;2.40;;
55601;SDS011;59921;51.332;12.410;2023-05-17T10:06:54;3.92;;;2.13;;
55601;SDS011;59921;51.332;12.410;2023-05-17T10:09:21;4.13;;;2.38;;
55601;SDS011;59921;51.332;12.410;2023-05-17T10:11:47;3.85;;;2.15;;
55601;SDS011;59921;51.332;12.410;2023-05-17T10:14:17;3.50;;;2.10;;
55601;SDS011;59921;51.332;12.410;2023-05-17T10:16:43;3.88;;;2.30;;
55601;SDS011;59921;51.332;12.410;2023-05-17T10:19:12;4.18;;;2.25;;
55601;SDS011;59921;51.332;12.410;2023-05-17T10:21:38;3.85;;;2.30;;
55601;SDS011;59921;51.332;12.410;2023-05-17T10:24:06;3.65;;;2.50;;
55601;SDS011;59921;51.332;12.410;2023-05-17T10:26:34;4.60;;;2.38;;
55601;SDS011;59921;51.332;12.410;2023-05-17T10:29:00;4.22;;;2.28;;
55601;SDS011;59921;51.332;12.410;2023-05-17T10:31:28;3.78;;;2.03;;
55601;SDS011;59921;51.332;12.410;2023-05-17T10:33:55;4.60;;;2.40;;
55601;SDS011;59921;51.332;12.410;2023-05-17T10:36:22;3.95;;;2.20;;
55601;SDS011;59921;51.332;12.410;2023-05-17T10:38:49;3.75;;;2.10;;
55601;SDS011;59921;51.332;12.410;2023-05-17T10:41:16;3.92;;;2.38;;
55601;SDS011;59921;51.332;12.410;2023-05-17T10:43:43;3.85;;;2.33;;
55601;SDS011;59921;51.332;12.410;2023-05-17T10:46:19;3.10;;;2.13;;
55601;SDS011;59921;51.332;12.410;2023-05-17T10:48:51;4.20;;;2.40;;
55601;SDS011;59921;51.332;12.410;2023-05-17T10:51:24;3.75;;;2.40;;
55601;SDS011;59921;51.332;12.410;2023-05-17T10:54:09;4.28;;;2.25;;
55601;SDS011;59921;51.332;12.410;2023-05-17T10:56:40;3.58;;;2.17;;
55601;SDS011;59921;51.332;12.410;2023-05-17T10:59:13;3.13;;;2.10;;
55601;SDS011;59921;51.332;12.410;2023-05-17T11:01:53;4.45;;;2.45;;
55601;SDS011;59921;51.332;12.410;2023-05-17T11:04:30;4.43;;;2.38;;
55601;SDS011;59921;51.332;12.410;2023-05-17T11:09:49;4.65;;;2.42;;
55601;SDS011;59921;51.332;12.410;2023-05-17T11:12:50;4.22;;;2.53;;
55601;SDS011;59921;51.332;12.410;2023-05-17T11:20:07;3.65;;;2.30;;
55601;SDS011;59921;51.332;12.410;2023-05-17T11:22:36;3.70;;;2.33;;
55601;SDS011;59921;51.332;12.410;2023-05-17T11:25:05;3.85;;;2.20;;
55601;SDS011;59921;51.332;12.410;2023-05-17T11:27:45;5.07;;;2.47;;
55601;SDS011;59921;51.332;12.410;2023-05-17T11:33:17;3.78;;;2.30;;
55601;SDS011;59921;51.332;12.410;2023-05-17T11:35:39;4.75;;;2.40;;
55601;SDS011;59921;51.332;12.410;2023-05-17T11:38:12;4.18;;;2.30;;
55601;SDS011;59921;51.332;12.410;2023-05-17T11:40:39;3.63;;;2.38;;
55601;SDS011;59921;51.332;12.410;2023-05-17T11:43:12;3.55;;;2.28;;
55601;SDS011;59921;51.332;12.410;2023-05-17T11:45:40;3.72;;;2.25;;
55601;SDS011;59921;51.332;12.410;2023-05-17T11:48:12;4.45;;;2.35;;
55601;SDS011;59921;51.332;12.410;2023-05-17T11:50:38;4.20;;;2.47;;
55601;SDS011;59921;51.332;12.410;2023-05-17T11:53:05;4.65;;;2.40;;
55601;SDS011;59921;51.332;12.410;2023-05-17T11:55:33;3.33;;;2.30;;
55601;SDS011;59921;51.332;12.410;2023-05-17T11:58:02;3.53;;;2.33;;
55601;SDS011;59921;51.332;12.410;2023-05-17T12:00:28;4.20;;;2.60;;
55601;SDS011;59921;51.332;12.410;2023-05-17T12:02:54;4.40;;;2.67;;
55601;SDS011;59921;51.332;12.410;2023-05-17T12:05:19;4.22;;;2.40;;
55601;SDS011;59921;51.332;12.410;2023-05-17T12:07:46;3.72;;;2.13;;
55601;SDS011;59921;51.332;12.410;2023-05-17T12:10:14;4.43;;;2.28;;
55601;SDS011;59921;51.332;12.410;2023-05-17T12:12:40;4.38;;;2.55;;
55601;SDS011;59921;51.332;12.410;2023-05-17T12:15:07;5.00;;;2.63;;
55601;SDS011;59921;51.332;12.410;2023-05-17T12:17:36;3.88;;;2.25;;
55601;SDS011;59921;51.332;12.410;2023-05-17T12:20:09;4.80;;;2.70;;
55601;SDS011;59921;51.332;12.410;2023-05-17T12:22:50;4.40;;;2.50;;
55601;SDS011;59921;51.332;12.410;2023-05-17T12:25:20;4.53;;;2.78;;
55601;SDS011;59921;51.332;12.410;2023-05-17T12:27:53;3.83;;;2.47;;
55601;SDS011;59921;51.332;12.410;2023-05-17T12:30:36;4.68;;;2.83;;
55601;SDS011;59921;51.332;12.410;2023-05-17T12:33:03;5.13;;;2.85;;
55601;SDS011;59921;51.332;12.410;2023-05-17T12:35:29;4.63;;;2.72;;
55601;SDS011;59921;51.332;12.410;2023-05-17T12:37:55;4.75;;;2.80;;
55601;SDS011;59921;51.332;12.410;2023-05-17T12:40:21;4.68;;;2.50;;
55601;SDS011;59921;51.332;12.410;2023-05-17T12:42:47;4.82;;;2.60;;
55601;SDS011;59921;51.332;12.410;2023-05-17T12:45:12;5.10;;;2.55;;
55601;SDS011;59921;51.332;12.410;2023-05-17T12:47:38;3.88;;;2.40;;
55601;SDS011;59921;51.332;12.410;2023-05-17T12:50:04;4.65;;;2.70;;
55601;SDS011;59921;51.332;12.410;2023-05-17T12:52:33;4.80;;;2.42;;
55601;SDS011;59921;51.332;12.410;2023-05-17T12:55:03;4.50;;;2.67;;
55601;SDS011;59921;51.332;12.410;2023-05-17T12:57:30;5.03;;;2.72;;
55601;SDS011;59921;51.332;12.410;2023-05-17T12:59:55;4.72;;;2.60;;
55601;SDS011;59921;51.332;12.410;2023-05-17T13:02:21;7.95;;;3.10;;
55601;SDS011;59921;51.332;12.410;2023-05-17T13:04:48;4.75;;;2.67;;
55601;SDS011;59921;51.332;12.410;2023-05-17T13:07:20;4.95;;;2.90;;
55601;SDS011;59921;51.332;12.410;2023-05-17T13:12:20;6.18;;;2.92;;
55601;SDS011;59921;51.332;12.410;2023-05-17T13:14:47;4.68;;;2.63;;
55601;SDS011;59921;51.332;12.410;2023-05-17T13:17:23;4.72;;;2.55;;
55601;SDS011;59921;51.332;12.410;2023-05-17T13:19:51;4.75;;;2.65;;
55601;SDS011;59921;51.332;12.410;2023-05-17T13:22:18;5.13;;;2.60;;
55601;SDS011;59921;51.332;12.410;2023-05-17T13:24:43;5.00;;;2.65;;
55601;SDS011;59921;51.332;12.410;2023-05-17T13:27:12;4.30;;;2.30;;
55601;SDS011;59921;51.332;12.410;2023-05-17T13:29:38;5.63;;;2.80;;
55601;SDS011;59921;51.332;12.410;2023-05-17T13:32:06;4.28;;;2.40;;
55601;SDS011;59921;51.332;12.410;2023-05-17T13:34:36;4.25;;;2.40;;
55601;SDS011;59921;51.332;12.410;2023-05-17T13:37:02;5.22;;;2.60;;
55601;SDS011;59921;51.332;12.410;2023-05-17T13:39:28;5.13;;;2.60;;
55601;SDS011;59921;51.332;12.410;2023-05-17T13:41:54;5.03;;;2.45;;
55601;SDS011;59921;51.332;12.410;2023-05-17T13:44:20;3.45;;;2.10;;
55601;SDS011;59921;51.332;12.410;2023-05-17T13:46:46;4.65;;;2.40;;
55601;SDS011;59921;51.332;12.410;2023-05-17T13:49:12;4.63;;;2.60;;
55601;SDS011;59921;51.332;12.410;2023-05-17T13:51:38;4.43;;;2.20;;
55601;SDS011;59921;51.332;12.410;2023-05-17T13:54:06;4.03;;;2.40;;
55601;SDS011;59921;51.332;12.410;2023-05-17T13:56:32;5.75;;;3.05;;
55601;SDS011;59921;51.332;12.410;2023-05-17T13:58:58;4.85;;;2.30;;
55601;SDS011;59921;51.332;12.410;2023-05-17T14:01:24;4.30;;;2.22;;
55601;SDS011;59921;51.332;12.410;2023-05-17T14:03:50;5.25;;;2.40;;
55601;SDS011;59921;51.332;12.410;2023-05-17T14:06:16;5.47;;;2.30;;
55601;SDS011;59921;51.332;12.410;2023-05-17T14:08:41;5.68;;;2.47;;
55601;SDS011;59921;51.332;12.410;2023-05-17T14:11:08;4.22;;;2.22;;
55601;SDS011;59921;51.332;12.410;2023-05-17T14:13:36;4.82;;;2.28;;
55601;SDS011;59921;51.332;12.410;2023-05-17T14:16:02;5.13;;;2.50;;
55601;SDS011;59921;51.332;12.410;2023-05-17T14:18:28;3.90;;;2.17;;
55601;SDS011;59921;51.332;12.410;2023-05-17T14:20:55;4.35;;;2.20;;
55601;SDS011;59921;51.332;12.410;2023-05-17T14:23:20;4.55;;;2.30;;
55601;SDS011;59921;51.332;12.410;2023-05-17T14:25:46;4.00;;;2.28;;
55601;SDS011;59921;51.332;12.410;2023-05-17T14:28:15;3.97;;;2.10;;
55601;SDS011;59921;51.332;12.410;2023-05-17T14:30:42;4.88;;;2.30;;
55601;SDS011;59921;51.332;12.410;2023-05-17T14:33:08;4.78;;;2.30;;
55601;SDS011;59921;51.332;12.410;2023-05-17T14:35:34;4.82;;;2.38;;
55601;SDS011;59921;51.332;12.410;2023-05-17T14:37:59;4.30;;;2.17;;
55601;SDS011;59921;51.332;12.410;2023-05-17T14:40:25;4.40;;;2.20;;
55601;SDS011;59921;51.332;12.410;2023-05-17T14:42:51;3.70;;;2.10;;
55601;SDS011;59921;51.332;12.410;2023-05-17T14:45:17;4.00;;;2.08;;
55601;SDS011;59921;51.332;12.410;2023-05-17T14:47:43;3.95;;;2.13;;
55601;SDS011;59921;51.332;12.410;2023-05-17T14:50:09;4.45;;;2.35;;
55601;SDS011;59921;51.332;12.410;2023-05-17T14:52:35;3.50;;;2.13;;
55601;SDS011;59921;51.332;12.410;2023-05-17T14:55:00;4.72;;;2.20;;